Time;durP1;ratioP1;P1;durP2;ratioP2;P2;SDS_P1;SDS_P2;PMS_P1;PMS_P2;Temp;Humidity;BMP_temperature;BMP_pressure;BME280_temperature;BME280_humidity;BME280_pressure;Samples;Min_cycle;Max_cycle;Signal;HPM_P1;HPM_P2
2023/07/02 00:01:41;;;;;;;39.00;26.45;;;19.10;99.90;;;;;;5052778;28;20069;-58
2023/07/02 00:04:08;;;;;;;46.17;27.48;;;19.10;99.90;;;;;;5052427;28;20371;-58
2023/07/02 00:06:40;;;;;;;39.95;27.52;;;19.10;99.90;;;;;;5052799;28;20090;-58
2023/07/02 00:09:11;;;;;;;33.78;23.30;;;19.10;99.90;;;;;;5052832;28;20119;-58
2023/07/02 00:11:43;;;;;;;49.20;31.10;;;19.10;99.90;;;;;;5037391;28;20082;-58
2023/07/02 00:14:10;;;;;;;47.10;29.42;;;19.00;99.90;;;;;;5052493;28;20460;-58
2023/07/02 00:16:38;;;;;;;41.17;28.20;;;19.00;99.90;;;;;;5052116;28;20045;-58
2023/07/02 00:19:04;;;;;;;38.60;26.50;;;19.00;99.90;;;;;;5051226;28;20463;-58
2023/07/02 00:21:33;;;;;;;42.58;26.52;;;18.90;99.90;;;;;;5052466;28;20040;-58
2023/07/02 00:23:59;;;;;;;44.40;27.95;;;18.90;99.90;;;;;;5052360;28;20039;-58
2023/07/02 00:26:25;;;;;;;49.42;28.27;;;18.90;99.90;;;;;;5052483;28;20041;-58
2023/07/02 00:28:51;;;;;;;47.75;29.58;;;18.90;99.90;;;;;;5052953;28;20070;-57
2023/07/02 00:31:17;;;;;;;42.38;29.55;;;18.90;99.90;;;;;;5050915;28;20056;-58
2023/07/02 00:33:42;;;;;;;46.47;27.25;;;18.90;99.90;;;;;;5052092;28;20041;-59
2023/07/02 00:36:12;;;;;;;41.60;28.92;;;18.90;99.90;;;;;;5052419;28;20033;-58
2023/07/02 00:38:38;;;;;;;42.20;27.60;;;18.90;99.90;;;;;;5052469;28;20398;-59
2023/07/02 00:41:04;;;;;;;40.17;27.13;;;18.90;99.90;;;;;;5051752;28;20210;-58
2023/07/02 00:43:30;;;;;;;46.30;29.70;;;19.00;99.90;;;;;;5050567;28;20068;-58
2023/07/02 00:45:56;;;;;;;43.13;30.10;;;18.80;99.90;;;;;;5052271;28;20059;-58
2023/07/02 00:48:21;;;;;;;39.85;27.40;;;18.90;99.90;;;;;;5052208;28;20183;-58
2023/07/02 00:50:47;;;;;;;46.22;31.38;;;19.00;99.90;;;;;;5052324;28;20125;-58
2023/07/02 00:53:13;;;;;;;46.20;30.85;;;18.90;99.90;;;;;;5052333;28;20116;-59
2023/07/02 00:55:38;;;;;;;47.10;29.67;;;18.80;99.90;;;;;;5051946;28;20056;-58
2023/07/02 00:58:04;;;;;;;48.42;31.52;;;18.70;99.90;;;;;;5051561;28;20037;-58
2023/07/02 01:00:30;;;;;;;47.85;32.70;;;18.80;99.90;;;;;;5051421;28;20129;-58
2023/07/02 01:02:59;;;;;;;44.70;33.00;;;18.60;99.90;;;;;;5051655;28;20406;-58
2023/07/02 01:05:32;;;;;;;45.80;31.60;;;18.70;99.90;;;;;;5051612;28;20041;-58
2023/07/02 01:07:57;;;;;;;43.58;27.70;;;18.70;99.90;;;;;;5051628;28;20045;-58
2023/07/02 01:10:23;;;;;;;38.80;29.42;;;18.60;99.90;;;;;;5042981;28;20418;-58
2023/07/02 01:12:49;;;;;;;38.85;30.05;;;18.70;99.90;;;;;;5049799;28;20044;-57
2023/07/02 01:15:15;;;;;;;41.10;29.02;;;18.70;99.90;;;;;;5050885;28;20071;-58
2023/07/02 01:17:41;;;;;;;45.25;31.42;;;18.60;99.90;;;;;;5051485;28;20041;-58
2023/07/02 01:20:09;;;;;;;40.28;29.02;;;18.70;99.90;;;;;;5051792;28;20037;-57
2023/07/02 01:22:35;;;;;;;45.78;32.75;;;18.50;99.90;;;;;;5051375;28;20037;-58
2023/07/02 01:25:01;;;;;;;46.75;32.40;;;18.60;99.90;;;;;;5050309;28;20043;-57
2023/07/02 01:27:30;;;;;;;41.80;35.42;;;18.60;99.90;;;;;;5033093;28;20045;-57
2023/07/02 01:29:56;;;;;;;46.85;35.55;;;18.80;99.90;;;;;;5051608;28;20041;-58
2023/07/02 01:32:23;;;;;;;50.65;34.65;;;18.50;1.00;;;;;;5051767;28;20037;-58
2023/07/02 01:34:49;;;;;;;52.80;35.35;;;18.50;1.00;;;;;;5051426;28;20465;-58
2023/07/02 01:37:16;;;;;;;48.65;33.78;;;18.50;1.00;;;;;;5050997;28;20555;-57
2023/07/02 01:39:42;;;;;;;51.30;34.40;;;18.60;1.00;;;;;;5051577;28;20087;-58
2023/07/02 01:42:09;;;;;;;42.70;32.00;;;19.00;1.00;;;;;;5051020;28;20029;-57
2023/07/02 01:44:36;;;;;;;47.08;33.58;;;18.50;99.90;;;;;;5050790;28;20049;-57
2023/07/02 01:47:02;;;;;;;45.42;32.25;;;18.40;1.00;;;;;;5050937;28;20422;-58
2023/07/02 01:49:27;;;;;;;47.45;34.42;;;18.50;99.90;;;;;;5050576;28;20056;-57
2023/07/02 01:51:55;;;;;;;42.72;33.33;;;18.40;99.90;;;;;;5048365;28;20045;-58
2023/07/02 01:54:24;;;;;;;47.35;34.10;;;18.50;99.90;;;;;;5050391;28;20083;-57
2023/07/02 01:56:50;;;;;;;42.00;31.33;;;18.40;99.90;;;;;;5050322;28;20406;-57
2023/07/02 01:59:16;;;;;;;47.35;34.10;;;18.50;99.90;;;;;;5066490;28;20033;-57
2023/07/02 02:01:42;;;;;;;46.42;32.55;;;18.40;99.90;;;;;;5050921;28;20080;-57
2023/07/02 02:04:08;;;;;;;45.88;32.72;;;18.30;99.90;;;;;;5050588;28;20158;-58
2023/07/02 02:06:34;;;;;;;47.38;33.58;;;18.40;99.90;;;;;;5050376;28;20041;-57
2023/07/02 02:09:00;;;;;;;45.70;34.20;;;18.40;99.90;;;;;;5050658;28;20043;-57
2023/07/02 02:11:26;;;;;;;47.72;34.92;;;18.40;99.90;;;;;;5030155;28;20513;-58
2023/07/02 02:13:51;;;;;;;47.33;34.60;;;18.40;99.90;;;;;;5050567;28;20048;-58
2023/07/02 02:16:17;;;;;;;50.20;35.72;;;18.40;1.00;;;;;;5050102;28;20037;-58
2023/07/02 02:18:43;;;;;;;41.33;31.17;;;18.50;1.00;;;;;;5050348;28;20068;-58
2023/07/02 02:21:08;;;;;;;37.17;30.45;;;18.40;99.90;;;;;;5050185;28;20592;-58
2023/07/02 02:23:34;;;;;;;43.33;31.77;;;18.50;99.90;;;;;;5050215;28;20494;-57
2023/07/02 02:26:00;;;;;;;41.47;30.30;;;18.50;99.90;;;;;;5050245;28;20115;-58
2023/07/02 02:28:25;;;;;;;37.15;28.00;;;18.40;99.90;;;;;;5050247;28;20529;-58
2023/07/02 02:30:51;;;;;;;40.05;31.73;;;18.50;99.90;;;;;;5050302;28;20043;-57
2023/07/02 02:33:16;;;;;;;41.63;34.05;;;18.50;99.90;;;;;;5050382;28;20079;-57
2023/07/02 02:35:42;;;;;;;39.75;30.77;;;18.50;99.90;;;;;;5049779;28;20113;-57
2023/07/02 02:38:08;;;;;;;43.25;32.95;;;18.40;99.90;;;;;;5049769;28;20091;-58
2023/07/02 02:40:34;;;;;;;39.47;31.77;;;18.50;99.90;;;;;;5050078;28;20065;-58
2023/07/02 02:43:00;;;;;;;41.67;30.77;;;18.50;99.90;;;;;;5064972;28;20056;-58
2023/07/02 02:45:25;;;;;;;42.60;32.50;;;18.40;99.90;;;;;;5050088;28;20479;-57
2023/07/02 02:47:51;;;;;;;43.13;31.63;;;18.50;99.90;;;;;;5049816;28;20040;-57
2023/07/02 02:50:16;;;;;;;42.85;31.70;;;18.70;99.90;;;;;;5049664;28;20056;-57
2023/07/02 02:52:42;;;;;;;44.35;32.70;;;18.50;99.90;;;;;;5050157;28;20471;-57
2023/07/02 02:55:10;;;;;;;45.85;31.42;;;18.40;99.90;;;;;;5047715;28;20044;-58
2023/07/02 02:57:36;;;;;;;50.45;32.50;;;18.50;99.90;;;;;;5049593;28;20041;-57
2023/07/02 03:00:02;;;;;;;48.47;34.58;;;18.50;99.90;;;;;;5050413;28;20391;-58
2023/07/02 03:02:28;;;;;;;48.05;32.83;;;18.40;99.90;;;;;;5049218;28;20036;-58
2023/07/02 03:04:53;;;;;;;41.22;31.45;;;18.40;99.90;;;;;;5048869;28;20036;-58
2023/07/02 03:07:19;;;;;;;50.97;35.22;;;18.40;99.90;;;;;;5049342;28;20487;-58
2023/07/02 03:09:45;;;;;;;49.83;34.13;;;18.50;99.90;;;;;;5044657;28;20044;-58
2023/07/02 03:12:11;;;;;;;51.28;37.03;;;18.50;99.90;;;;;;5041802;28;20041;-57
2023/07/02 03:14:37;;;;;;;46.08;36.22;;;18.40;99.90;;;;;;5049623;28;20076;-57
2023/07/02 03:17:03;;;;;;;43.88;30.15;;;18.40;99.90;;;;;;5049652;28;20037;-58
2023/07/02 03:19:28;;;;;;;40.28;31.02;;;18.40;99.90;;;;;;5049925;28;20036;-58
2023/07/02 03:21:54;;;;;;;38.20;30.48;;;17.70;99.90;;;;;;5049464;28;20039;-57
2023/07/02 03:24:20;;;;;;;39.20;30.50;;;18.30;99.90;;;;;;5049089;28;20348;-58
2023/07/02 03:26:45;;;;;;;40.50;31.70;;;18.40;99.90;;;;;;5048746;28;20072;-58
2023/07/02 03:29:11;;;;;;;39.10;31.63;;;18.40;99.90;;;;;;5049943;28;20040;-58
2023/07/02 03:31:37;;;;;;;35.65;29.08;;;18.40;99.90;;;;;;5049720;28;20112;-58
2023/07/02 03:34:09;;;;;;;41.63;31.27;;;18.20;99.90;;;;;;5049581;28;20041;-58
2023/07/02 03:36:36;;;;;;;38.58;31.77;;;18.10;99.90;;;;;;5049144;28;20120;-57
2023/07/02 03:39:02;;;;;;;34.60;30.98;;;18.10;99.90;;;;;;5064610;28;20052;-58
2023/07/02 03:41:28;;;;;;;33.30;29.80;;;18.10;99.90;;;;;;5047219;28;20037;-57
2023/07/02 03:43:54;;;;;;;29.90;26.70;;;18.00;99.90;;;;;;5049811;28;20076;-57
2023/07/02 03:46:19;;;;;;;34.75;31.00;;;18.00;99.90;;;;;;5049581;28;20567;-57
2023/07/02 03:48:45;;;;;;;28.83;25.77;;;17.90;99.90;;;;;;5047293;28;20043;-57
2023/07/02 03:51:12;;;;;;;35.03;29.63;;;17.90;99.90;;;;;;5048616;28;20041;-57
2023/07/02 03:53:38;;;;;;;33.05;26.77;;;17.90;99.90;;;;;;5049185;28;20523;-57
2023/07/02 03:56:04;;;;;;;36.25;29.40;;;17.90;99.90;;;;;;5048689;28;20069;-58
2023/07/02 03:58:29;;;;;;;37.70;28.02;;;17.90;99.90;;;;;;5049362;28;20128;-57
2023/07/02 04:00:55;;;;;;;35.80;31.23;;;18.00;99.90;;;;;;5049386;28;20052;-58
2023/07/02 04:03:20;;;;;;;36.80;30.77;;;18.00;99.90;;;;;;5048862;28;20041;-58
2023/07/02 04:05:46;;;;;;;38.78;32.42;;;18.00;99.90;;;;;;5049353;28;20124;-58
2023/07/02 04:08:12;;;;;;;48.05;35.38;;;18.00;99.90;;;;;;5049209;28;20121;-57
2023/07/02 04:10:37;;;;;;;39.50;29.13;;;18.10;99.90;;;;;;5028505;28;20037;-58
2023/07/02 04:13:03;;;;;;;39.85;29.23;;;18.20;99.90;;;;;;5049479;28;20033;-58
2023/07/02 04:15:28;;;;;;;39.20;32.53;;;18.30;99.90;;;;;;5048040;28;20096;-58
2023/07/02 04:17:54;;;;;;;43.17;31.83;;;18.30;99.90;;;;;;5051954;28;20509;-58
2023/07/02 04:20:20;;;;;;;41.53;33.70;;;18.30;99.90;;;;;;5052930;28;20498;-58
2023/07/02 04:22:46;;;;;;;44.67;36.28;;;18.30;99.90;;;;;;5052326;28;20040;-58
2023/07/02 04:25:16;;;;;;;42.83;32.67;;;18.30;99.90;;;;;;5052535;28;20032;-57
2023/07/02 04:27:42;;;;;;;40.95;31.20;;;18.10;99.90;;;;;;5052187;28;20041;-57
2023/07/02 04:30:09;;;;;;;32.10;27.35;;;18.10;99.90;;;;;;5052910;28;20051;-58
2023/07/02 04:32:36;;;;;;;30.95;25.27;;;18.10;99.90;;;;;;5052547;28;20116;-57
2023/07/02 04:35:01;;;;;;;35.58;28.83;;;18.10;99.90;;;;;;5052187;28;20084;-58
2023/07/02 04:37:30;;;;;;;43.83;32.55;;;18.20;99.90;;;;;;5052044;28;20072;-57
2023/07/02 04:39:55;;;;;;;51.03;40.38;;;18.20;99.90;;;;;;5052615;28;20032;-57
2023/07/02 04:42:21;;;;;;;55.03;40.55;;;18.10;99.90;;;;;;5052069;28;20530;-56
2023/07/02 04:44:46;;;;;;;55.75;43.03;;;17.70;86.10;;;;;;5052255;28;20126;-58
2023/07/02 04:47:12;;;;;;;55.22;40.25;;;17.40;99.90;;;;;;5052070;28;20045;-57
2023/07/02 04:49:38;;;;;;;53.88;39.28;;;17.10;40.70;;;;;;5052065;28;20495;-58
2023/07/02 04:52:04;;;;;;;43.53;36.55;;;17.10;99.90;;;;;;5050236;28;20415;-58
2023/07/02 04:54:30;;;;;;;42.83;35.95;;;17.40;43.70;;;;;;5052060;28;20041;-57
2023/07/02 04:56:55;;;;;;;46.28;36.47;;;17.10;1.00;;;;;;5052039;28;20047;-57
2023/07/02 04:59:21;;;;;;;48.50;36.67;;;17.20;1.00;;;;;;5051705;28;20431;-58
2023/07/02 05:01:47;;;;;;;47.80;37.75;;;17.20;1.00;;;;;;5051858;28;20084;-57
2023/07/02 05:04:13;;;;;;;45.30;35.40;;;17.50;99.90;;;;;;5049804;28;20029;-57
2023/07/02 05:06:39;;;;;;;47.15;35.30;;;17.40;99.90;;;;;;5050575;28;20056;-57
2023/07/02 05:09:05;;;;;;;47.85;34.33;;;17.20;99.90;;;;;;5051692;28;20103;-57
2023/07/02 05:11:30;;;;;;;37.03;32.25;;;17.30;99.90;;;;;;5040198;28;20037;-57
2023/07/02 05:13:56;;;;;;;35.70;30.67;;;17.40;87.90;;;;;;5051999;28;20049;-58
2023/07/02 05:16:21;;;;;;;40.40;33.45;;;17.20;28.30;;;;;;5051565;28;20033;-57
2023/07/02 05:18:47;;;;;;;41.78;33.08;;;17.40;68.70;;;;;;5051197;28;20107;-58
2023/07/02 05:21:13;;;;;;;53.05;35.50;;;17.30;63.60;;;;;;5051582;28;20029;-57
2023/07/02 05:23:38;;;;;;;41.25;30.25;;;17.60;99.90;;;;;;5051583;28;20179;-57
2023/07/02 05:26:04;;;;;;;38.97;32.03;;;18.00;99.90;;;;;;5051644;28;20037;-58
2023/07/02 05:28:29;;;;;;;41.45;31.92;;;18.00;95.30;;;;;;5049527;28;20040;-58
2023/07/02 05:30:55;;;;;;;38.22;31.25;;;18.00;10.50;;;;;;5051245;28;20380;-57
2023/07/02 05:33:21;;;;;;;32.75;28.80;;;17.80;1.00;;;;;;5051544;28;20048;-57
2023/07/02 05:35:47;;;;;;;39.30;30.52;;;17.60;99.90;;;;;;5051002;28;20403;-58
2023/07/02 05:38:13;;;;;;;32.05;28.48;;;17.60;1.00;;;;;;5050916;28;20037;-58
2023/07/02 05:40:39;;;;;;;31.23;28.13;;;17.70;99.90;;;;;;5044888;28;20049;-58
2023/07/02 05:43:05;;;;;;;33.67;29.08;;;17.60;99.90;;;;;;5050631;28;20053;-57
2023/07/02 05:45:31;;;;;;;34.33;28.70;;;17.70;99.90;;;;;;5050949;28;20060;-58
2023/07/02 05:47:57;;;;;;;33.83;29.40;;;17.70;99.90;;;;;;5049457;28;20037;-58
2023/07/02 05:50:22;;;;;;;35.53;29.98;;;17.80;99.90;;;;;;5050806;28;20517;-58
2023/07/02 05:52:48;;;;;;;39.63;31.10;;;17.80;99.90;;;;;;5050864;28;20076;-57
2023/07/02 05:55:14;;;;;;;40.90;30.27;;;17.90;99.90;;;;;;5051242;28;20084;-57
2023/07/02 05:57:39;;;;;;;43.53;31.00;;;18.10;99.90;;;;;;5050776;28;20033;-57
2023/07/02 06:00:05;;;;;;;36.88;29.27;;;17.90;99.90;;;;;;5050625;28;20451;-58
2023/07/02 06:02:31;;;;;;;30.85;27.23;;;18.10;1.00;;;;;;5050137;28;20040;-58
2023/07/02 06:04:57;;;;;;;36.88;30.23;;;18.00;99.90;;;;;;5050983;28;20029;-57
2023/07/02 06:07:24;;;;;;;38.53;30.35;;;18.20;99.90;;;;;;5050548;28;20086;-58
2023/07/02 06:09:50;;;;;;;35.65;29.23;;;18.10;99.90;;;;;;5046424;28;20752;-57
2023/07/02 06:12:16;;;;;;;35.42;30.35;;;18.20;99.90;;;;;;5062758;28;20049;-57
2023/07/02 06:14:41;;;;;;;39.15;31.38;;;18.10;99.90;;;;;;5030774;28;20073;-58
2023/07/02 06:17:08;;;;;;;40.53;31.95;;;18.00;99.90;;;;;;5043745;28;20028;-57
2023/07/02 06:19:33;;;;;;;41.80;31.60;;;18.10;99.90;;;;;;5049869;28;20045;-58
2023/07/02 06:21:59;;;;;;;35.92;29.95;;;18.10;99.90;;;;;;5050128;28;20335;-57
2023/07/02 06:24:25;;;;;;;33.33;29.23;;;18.20;99.90;;;;;;5050558;28;20048;-58
2023/07/02 06:26:51;;;;;;;33.65;30.25;;;18.20;99.90;;;;;;5050516;28;20059;-57
2023/07/02 06:29:16;;;;;;;40.75;30.90;;;18.20;99.90;;;;;;5050375;28;20124;-57
2023/07/02 06:31:42;;;;;;;34.88;30.92;;;18.20;99.90;;;;;;5050004;28;20045;-57
2023/07/02 06:34:08;;;;;;;35.45;29.25;;;18.30;99.90;;;;;;5049818;28;20078;-58
2023/07/02 06:36:34;;;;;;;36.38;31.08;;;18.40;99.90;;;;;;5050200;28;20076;-58
2023/07/02 06:39:00;;;;;;;39.08;31.17;;;18.30;99.90;;;;;;5049913;28;20083;-58
2023/07/02 06:41:26;;;;;;;34.72;30.70;;;18.50;99.90;;;;;;5049176;28;20091;-58
2023/07/02 06:43:51;;;;;;;37.83;31.48;;;18.80;99.90;;;;;;5047387;28;20056;-58
2023/07/02 06:46:17;;;;;;;37.35;30.70;;;18.60;99.90;;;;;;5030379;28;20048;-58
2023/07/02 06:48:43;;;;;;;35.45;31.20;;;18.60;99.90;;;;;;5030184;28;20522;-58
2023/07/02 06:51:08;;;;;;;31.77;28.52;;;18.80;99.90;;;;;;5030199;28;20045;-58
2023/07/02 06:53:35;;;;;;;32.42;28.95;;;18.80;99.90;;;;;;5039885;28;20037;-57
2023/07/02 06:56:01;;;;;;;34.65;30.92;;;18.80;99.90;;;;;;5050055;28;20045;-58
2023/07/02 06:58:26;;;;;;;34.95;31.45;;;19.10;99.90;;;;;;5049794;28;20041;-58
2023/07/02 07:00:52;;;;;;;37.38;31.45;;;19.00;99.90;;;;;;5050084;28;20036;-57
2023/07/02 07:03:18;;;;;;;44.63;32.85;;;19.20;99.90;;;;;;5043796;28;20045;-57
2023/07/02 07:05:43;;;;;;;37.60;33.65;;;18.90;99.90;;;;;;5030235;28;20091;-58
2023/07/02 07:08:09;;;;;;;38.35;34.28;;;18.70;99.90;;;;;;5030166;28;20041;-57
2023/07/02 07:10:34;;;;;;;43.72;35.20;;;18.70;99.90;;;;;;5020131;28;20523;-57
2023/07/02 07:13:02;;;;;;;40.22;33.00;;;18.60;99.90;;;;;;5010447;28;20411;-57
2023/07/02 07:15:29;;;;;;;41.92;34.33;;;18.60;99.90;;;;;;5010264;28;20057;-57
2023/07/02 07:17:55;;;;;;;39.92;35.67;;;18.50;99.90;;;;;;5010062;28;20053;-57
2023/07/02 07:20:21;;;;;;;39.75;35.58;;;18.50;99.90;;;;;;5023112;28;20041;-57
2023/07/02 07:22:46;;;;;;;49.35;40.15;;;18.50;99.90;;;;;;5062127;28;20052;-57
2023/07/02 07:25:12;;;;;;;50.17;42.00;;;18.50;99.90;;;;;;5029822;28;20127;-57
2023/07/02 07:27:38;;;;;;;50.30;40.67;;;18.20;99.90;;;;;;5048136;28;20099;-58
2023/07/02 07:30:04;;;;;;;46.75;39.33;;;18.00;1.00;;;;;;5049605;28;20037;-57
2023/07/02 07:32:29;;;;;;;43.33;35.90;;;18.00;1.00;;;;;;5049191;28;20072;-57
2023/07/02 07:34:55;;;;;;;37.35;33.17;;;18.10;99.90;;;;;;5049239;28;20095;-57
2023/07/02 07:37:21;;;;;;;39.00;34.45;;;18.40;99.90;;;;;;5049082;28;20037;-57
2023/07/02 07:39:46;;;;;;;47.53;37.50;;;18.80;99.90;;;;;;5048903;28;20068;-57
2023/07/02 07:42:15;;;;;;;43.45;33.40;;;18.60;99.90;;;;;;5049355;28;20036;-58
2023/07/02 07:44:40;;;;;;;39.20;31.38;;;18.80;99.90;;;;;;5049635;28;20061;-58
2023/07/02 07:47:06;;;;;;;38.83;34.72;;;19.10;99.90;;;;;;5048060;28;20052;-57
2023/07/02 07:49:31;;;;;;;38.58;34.35;;;19.00;99.90;;;;;;5049200;28;20518;-57
2023/07/02 07:51:57;;;;;;;36.92;32.95;;;19.20;99.90;;;;;;5049455;28;20080;-58
2023/07/02 07:54:22;;;;;;;40.80;33.42;;;19.00;99.90;;;;;;5053331;28;20056;-58
2023/07/02 07:56:48;;;;;;;43.50;36.67;;;19.10;99.90;;;;;;5053165;28;20053;-58
2023/07/02 07:59:14;;;;;;;45.67;38.00;;;19.40;99.90;;;;;;5053303;28;20065;-57
2023/07/02 08:01:40;;;;;;;41.33;36.80;;;19.20;99.90;;;;;;5052991;28;20045;-58
2023/07/02 08:04:05;;;;;;;43.65;37.17;;;19.00;99.90;;;;;;5053406;28;20513;-59
2023/07/02 08:06:31;;;;;;;45.08;38.97;;;18.80;99.90;;;;;;5052853;28;20335;-58
2023/07/02 08:08:57;;;;;;;41.42;37.08;;;18.70;99.90;;;;;;5053130;28;20094;-57
2023/07/02 08:11:22;;;;;;;38.17;34.60;;;18.70;99.90;;;;;;5036274;28;20495;-58
2023/07/02 08:13:48;;;;;;;37.53;32.95;;;18.80;99.90;;;;;;5068619;28;20045;-58
2023/07/02 08:16:13;;;;;;;38.83;34.67;;;19.20;99.90;;;;;;5052959;28;20041;-58
2023/07/02 08:18:39;;;;;;;38.63;34.63;;;19.30;99.90;;;;;;5053237;28;20048;-58
2023/07/02 08:21:06;;;;;;;36.85;33.15;;;19.50;99.90;;;;;;5052886;28;20503;-58
2023/07/02 08:23:32;;;;;;;34.78;31.40;;;19.30;99.90;;;;;;5053001;28;20406;-57
2023/07/02 08:25:57;;;;;;;37.15;33.33;;;19.30;99.90;;;;;;5053127;28;20029;-58
2023/07/02 08:28:23;;;;;;;39.78;35.20;;;19.50;99.90;;;;;;5052753;28;20040;-58
2023/07/02 08:30:48;;;;;;;33.85;30.30;;;19.70;99.90;;;;;;5053296;28;20053;-58
2023/07/02 08:33:14;;;;;;;36.42;32.85;;;19.70;99.90;;;;;;5053084;28;20052;-58
2023/07/02 08:35:39;;;;;;;40.22;36.10;;;19.80;99.90;;;;;;5052540;28;20087;-58
2023/07/02 08:38:05;;;;;;;36.35;32.55;;;19.90;99.90;;;;;;5052356;28;20043;-57
2023/07/02 08:40:30;;;;;;;37.05;33.53;;;20.10;99.90;;;;;;5052455;28;20040;-57
2023/07/02 08:42:56;;;;;;;44.67;39.95;;;19.90;99.90;;;;;;5052542;28;20063;-57
2023/07/02 08:45:26;;;;;;;45.58;40.90;;;19.70;99.90;;;;;;5052656;28;20052;-58
2023/07/02 08:47:56;;;;;;;40.13;36.25;;;19.50;99.90;;;;;;5052252;28;20414;-58
2023/07/02 08:50:22;;;;;;;36.08;32.28;;;19.70;99.90;;;;;;5052474;28;20044;-58
2023/07/02 08:52:47;;;;;;;41.13;37.30;;;20.10;99.10;;;;;;5052780;28;20041;-58
2023/07/02 08:55:13;;;;;;;39.63;35.70;;;19.80;95.30;;;;;;5052679;28;20090;-58
2023/07/02 08:57:49;;;;;;;40.67;36.67;;;20.00;99.90;;;;;;5051952;28;20052;-58
2023/07/02 09:00:15;;;;;;;36.42;32.47;;;20.20;99.90;;;;;;5052656;28;20033;-58
2023/07/02 09:02:40;;;;;;;38.42;34.55;;;20.30;99.90;;;;;;5051609;28;20087;-58
2023/07/02 09:05:06;;;;;;;37.90;34.00;;;20.30;99.90;;;;;;5051811;28;20510;-58
2023/07/02 09:07:43;;;;;;;36.08;32.40;;;20.40;99.90;;;;;;5052143;28;20071;-58
2023/07/02 09:10:09;;;;;;;34.85;31.35;;;20.20;86.00;;;;;;5054208;28;20076;-57
2023/07/02 09:12:35;;;;;;;32.88;29.55;;;20.20;88.00;;;;;;5049342;28;20036;-58
2023/07/02 09:15:06;;;;;;;32.28;28.90;;;20.50;90.60;;;;;;5052278;28;20433;-58
2023/07/02 09:17:33;;;;;;;24.85;21.00;;;20.80;95.60;;;;;;5051593;28;20449;-58
2023/07/02 09:20:01;;;;;;;29.70;26.27;;;21.40;71.60;;;;;;5051865;28;20043;-58
2023/07/02 09:22:27;;;;;;;23.60;20.98;;;21.00;46.50;;;;;;5051854;28;20048;-58
2023/07/02 09:24:54;;;;;;;40.15;33.25;;;21.10;36.00;;;;;;5052175;28;20033;-58
2023/07/02 09:27:21;;;;;;;36.40;28.48;;;20.70;27.70;;;;;;5051416;28;20041;-59
2023/07/02 09:29:54;;;;;;;26.48;23.48;;;21.00;67.00;;;;;;5051803;28;20040;-58
2023/07/02 09:32:28;;;;;;;32.15;28.85;;;21.30;43.10;;;;;;5051326;28;20049;-58
2023/07/02 09:34:55;;;;;;;21.02;18.38;;;21.20;33.80;;;;;;5051704;28;20037;-58
2023/07/02 09:37:22;;;;;;;37.78;33.83;;;20.80;17.00;;;;;;5051338;28;20034;-58
2023/07/02 09:39:54;;;;;;;24.35;17.70;;;20.80;39.80;;;;;;5051296;28;20039;-58
2023/07/02 09:42:21;;;;;;;27.20;23.90;;;20.90;9.90;;;;;;5050912;28;20045;-58
2023/07/02 09:44:47;;;;;;;25.20;21.05;;;21.00;17.10;;;;;;5050940;28;20080;-58
2023/07/02 09:47:15;;;;;;;37.00;33.17;;;20.60;1.20;;;;;;5050747;28;20128;-58
2023/07/02 09:50:05;;;;;;;32.83;29.23;;;20.40;8.50;;;;;;5049506;28;20114;-61
2023/07/02 09:52:33;;;;;;;32.33;29.08;;;20.40;17.00;;;;;;5049472;28;20052;-58
2023/07/02 09:54:58;;;;;;;41.63;37.55;;;20.20;17.30;;;;;;5050696;28;20045;-58
2023/07/02 09:57:24;;;;;;;45.33;41.05;;;20.10;22.60;;;;;;5050667;28;20179;-58
2023/07/02 09:59:50;;;;;;;30.67;26.52;;;20.20;32.00;;;;;;5050893;28;20060;-58
2023/07/02 10:02:16;;;;;;;30.30;27.08;;;20.30;31.20;;;;;;5050871;28;20049;-58
2023/07/02 10:04:42;;;;;;;25.40;22.67;;;20.40;33.30;;;;;;5050894;28;20049;-58
2023/07/02 10:07:08;;;;;;;18.58;11.45;;;20.60;24.70;;;;;;5050301;28;20048;-58
2023/07/02 10:09:45;;;;;;;20.73;14.40;;;20.50;1.00;;;;;;5046974;28;20051;-58
2023/07/02 10:12:20;;;;;;;18.40;11.18;;;20.60;1.00;;;;;;5044919;28;20537;-58
2023/07/02 10:14:48;;;;;;;29.20;24.15;;;20.70;1.00;;;;;;5030769;28;20128;-58
2023/07/02 10:17:34;;;;;;;25.50;17.58;;;20.60;1.00;;;;;;5029290;28;20080;-59
2023/07/02 10:20:06;;;;;;;24.47;14.43;;;20.80;8.10;;;;;;5029436;28;20128;-58
2023/07/02 10:22:52;;;;;;;27.52;15.38;;;21.10;9.60;;;;;;5030543;28;20049;-58
2023/07/02 10:25:25;;;;;;;15.50;6.72;;;21.20;1.00;;;;;;5029585;28;20650;-58
2023/07/02 10:27:51;;;;;;;12.55;5.30;;;20.90;1.00;;;;;;5046834;28;20032;-58
2023/07/02 10:30:16;;;;;;;15.90;7.03;;;20.50;1.00;;;;;;5050173;28;20048;-58
2023/07/02 10:32:42;;;;;;;11.65;4.95;;;20.50;1.00;;;;;;5050516;28;20070;-58
2023/07/02 10:35:15;;;;;;;14.50;5.60;;;20.70;1.00;;;;;;5050455;28;20075;-57
2023/07/02 10:37:41;;;;;;;16.25;5.85;;;20.70;1.00;;;;;;5050683;28;20033;-58
2023/07/02 10:40:07;;;;;;;14.77;5.38;;;20.80;1.00;;;;;;5050378;28;20036;-58
2023/07/02 10:42:34;;;;;;;16.05;5.15;;;21.00;1.00;;;;;;5049646;28;20047;-58
2023/07/02 10:44:59;;;;;;;12.40;4.60;;;21.30;1.00;;;;;;5050278;28;20041;-58
2023/07/02 10:47:25;;;;;;;15.70;5.25;;;21.40;1.00;;;;;;5049724;28;20499;-58
2023/07/02 10:49:50;;;;;;;11.88;4.70;;;21.00;1.00;;;;;;5049863;28;20048;-58
2023/07/02 10:52:16;;;;;;;13.27;4.75;;;20.40;1.00;;;;;;5049970;28;20486;-57
2023/07/02 10:54:46;;;;;;;12.57;5.10;;;20.50;1.00;;;;;;5049866;28;20049;-58
2023/07/02 10:57:20;;;;;;;13.18;5.40;;;20.50;1.00;;;;;;5049981;28;20040;-58
2023/07/02 10:59:46;;;;;;;15.18;4.65;;;20.60;1.00;;;;;;5050014;28;20064;-58
2023/07/02 11:02:12;;;;;;;19.75;6.30;;;20.10;1.00;;;;;;5050003;28;20452;-58
2023/07/02 11:04:37;;;;;;;17.98;5.60;;;20.00;1.00;;;;;;5049124;28;20123;-58
2023/07/02 11:07:04;;;;;;;15.32;5.10;;;20.50;6.10;;;;;;5048667;28;20471;-58
2023/07/02 11:09:29;;;;;;;14.85;5.38;;;20.80;1.00;;;;;;5047341;28;20516;-58
2023/07/02 11:12:00;;;;;;;12.57;4.63;;;20.90;1.00;;;;;;5041834;28;20060;-58
2023/07/02 11:14:32;;;;;;;15.95;4.88;;;20.70;1.00;;;;;;5062455;28;20057;-58
2023/07/02 11:17:02;;;;;;;13.43;4.38;;;20.30;1.00;;;;;;5045686;28;20045;-58
2023/07/02 11:19:27;;;;;;;15.57;5.13;;;20.10;1.00;;;;;;5049993;28;20044;-58
2023/07/02 11:21:58;;;;;;;15.18;5.28;;;20.50;1.00;;;;;;5049397;28;20041;-58
2023/07/02 11:24:35;;;;;;;15.00;5.43;;;20.80;1.00;;;;;;5049544;28;20407;-57
2023/07/02 11:27:01;;;;;;;18.73;5.60;;;20.90;1.00;;;;;;5051089;28;20445;-57
2023/07/02 11:29:29;;;;;;;18.33;5.57;;;20.90;1.00;;;;;;5053861;28;20127;-58
2023/07/02 11:32:04;;;;;;;12.98;5.60;;;20.60;1.00;;;;;;5052605;28;20037;-58
2023/07/02 11:34:30;;;;;;;14.30;5.17;;;20.80;1.00;;;;;;5053913;28;20037;-58
2023/07/02 11:36:55;;;;;;;16.98;6.10;;;21.00;1.00;;;;;;5053701;28;20048;-58
2023/07/02 11:39:21;;;;;;;12.57;5.30;;;21.10;1.00;;;;;;5047433;28;20037;-58
2023/07/02 11:41:48;;;;;;;13.52;5.32;;;21.00;1.00;;;;;;5047010;28;20064;-58
2023/07/02 11:44:15;;;;;;;15.80;5.57;;;20.50;1.00;;;;;;5053165;28;20045;-58
2023/07/02 11:46:40;;;;;;;16.95;6.07;;;20.30;1.00;;;;;;5053243;28;20049;-58
2023/07/02 11:49:08;;;;;;;15.40;6.05;;;20.50;1.00;;;;;;5053640;28;20047;-58
2023/07/02 11:51:36;;;;;;;19.73;6.40;;;20.80;1.00;;;;;;5053325;28;20099;-58
2023/07/02 11:54:03;;;;;;;14.15;5.97;;;21.10;1.00;;;;;;5084949;28;20395;-58
2023/07/02 11:56:29;;;;;;;15.38;6.03;;;21.00;1.00;;;;;;5053085;28;20534;-58
2023/07/02 11:58:55;;;;;;;15.30;6.05;;;20.80;1.00;;;;;;5053432;28;20064;-58
2023/07/02 12:01:20;;;;;;;15.52;5.47;;;21.00;1.00;;;;;;5053046;28;20045;-58
2023/07/02 12:03:46;;;;;;;15.15;6.03;;;21.10;1.00;;;;;;5085307;28;20041;-58
2023/07/02 12:06:11;;;;;;;15.90;6.18;;;21.30;1.00;;;;;;5053239;28;20532;-58
2023/07/02 12:08:37;;;;;;;14.65;5.47;;;21.30;1.00;;;;;;5052597;28;20033;-58
2023/07/02 12:11:02;;;;;;;15.52;5.53;;;21.40;1.00;;;;;;5037308;28;20103;-57
2023/07/02 12:13:28;;;;;;;13.63;5.65;;;21.30;1.00;;;;;;5031541;28;20059;-57
2023/07/02 12:15:53;;;;;;;12.48;5.07;;;21.10;1.00;;;;;;5052506;28;20076;-57
2023/07/02 12:18:19;;;;;;;16.52;6.00;;;20.70;1.00;;;;;;5052530;28;20099;-58
2023/07/02 12:20:45;;;;;;;16.85;6.57;;;20.50;1.00;;;;;;5052920;28;20119;-58
2023/07/02 12:23:11;;;;;;;15.57;5.95;;;20.50;1.00;;;;;;5053089;28;20538;-58
2023/07/02 12:25:37;;;;;;;16.92;5.53;;;20.80;1.00;;;;;;5052276;28;20041;-58
2023/07/02 12:28:04;;;;;;;14.38;5.82;;;21.00;1.00;;;;;;5037194;28;20045;-58